sensor_id;sensor_type;location;lat;lon;timestamp;P1;durP1;ratioP1;P2;durP2;ratioP2
50569;SDS011;36525;49.398;7.614;2023-05-02T00:00:50;4.82;;;3.53;;
50569;SDS011;36525;49.398;7.614;2023-05-02T00:03:17;3.30;;;2.72;;
50569;SDS011;36525;49.398;7.614;2023-05-02T00:05:44;6.63;;;4.35;;
50569;SDS011;36525;49.398;7.614;2023-05-02T00:08:11;5.75;;;4.20;;
50569;SDS011;36525;49.398;7.614;2023-05-02T00:10:38;5.22;;;4.15;;
50569;SDS011;36525;49.398;7.614;2023-05-02T00:13:05;5.85;;;4.35;;
50569;SDS011;36525;49.398;7.614;2023-05-02T00:15:33;4.82;;;3.40;;
50569;SDS011;36525;49.398;7.614;2023-05-02T00:18:03;6.28;;;4.43;;
50569;SDS011;36525;49.398;7.614;2023-05-02T00:20:31;6.22;;;3.90;;
50569;SDS011;36525;49.398;7.614;2023-05-02T00:23:01;4.00;;;3.10;;
50569;SDS011;36525;49.398;7.614;2023-05-02T00:25:28;5.97;;;4.60;;
50569;SDS011;36525;49.398;7.614;2023-05-02T00:27:55;5.45;;;4.70;;
50569;SDS011;36525;49.398;7.614;2023-05-02T00:30:22;6.38;;;4.22;;
50569;SDS011;36525;49.398;7.614;2023-05-02T00:32:50;6.43;;;4.15;;
50569;SDS011;36525;49.398;7.614;2023-05-02T00:35:19;7.03;;;4.18;;
50569;SDS011;36525;49.398;7.614;2023-05-02T00:37:46;4.28;;;3.85;;
50569;SDS011;36525;49.398;7.614;2023-05-02T00:40:14;5.00;;;3.88;;
50569;SDS011;36525;49.398;7.614;2023-05-02T00:42:43;4.35;;;3.58;;
50569;SDS011;36525;49.398;7.614;2023-05-02T00:45:10;6.38;;;4.60;;
50569;SDS011;36525;49.398;7.614;2023-05-02T00:47:38;5.03;;;4.20;;
50569;SDS011;36525;49.398;7.614;2023-05-02T00:50:05;8.38;;;4.45;;
50569;SDS011;36525;49.398;7.614;2023-05-02T00:52:32;4.55;;;3.70;;
50569;SDS011;36525;49.398;7.614;2023-05-02T00:55:00;5.82;;;4.00;;
50569;SDS011;36525;49.398;7.614;2023-05-02T00:57:28;4.47;;;3.95;;
50569;SDS011;36525;49.398;7.614;2023-05-02T00:59:56;5.88;;;4.82;;
50569;SDS011;36525;49.398;7.614;2023-05-02T01:02:28;4.88;;;3.90;;
50569;SDS011;36525;49.398;7.614;2023-05-02T01:05:17;6.15;;;4.45;;
50569;SDS011;36525;49.398;7.614;2023-05-02T01:10:37;6.00;;;4.35;;
50569;SDS011;36525;49.398;7.614;2023-05-02T01:13:27;9.10;;;4.35;;
50569;SDS011;36525;49.398;7.614;2023-05-02T01:15:59;5.97;;;4.32;;
50569;SDS011;36525;49.398;7.614;2023-05-02T01:18:29;5.68;;;5.13;;
50569;SDS011;36525;49.398;7.614;2023-05-02T01:21:03;6.95;;;5.50;;
50569;SDS011;36525;49.398;7.614;2023-05-02T01:23:42;5.55;;;4.93;;
50569;SDS011;36525;49.398;7.614;2023-05-02T01:29:33;5.70;;;4.78;;
50569;SDS011;36525;49.398;7.614;2023-05-02T01:32:03;6.18;;;4.82;;
50569;SDS011;36525;49.398;7.614;2023-05-02T01:34:35;6.00;;;4.95;;
50569;SDS011;36525;49.398;7.614;2023-05-02T01:37:06;7.18;;;5.10;;
50569;SDS011;36525;49.398;7.614;2023-05-02T01:39:37;6.80;;;5.65;;
50569;SDS011;36525;49.398;7.614;2023-05-02T01:42:06;7.78;;;6.50;;
50569;SDS011;36525;49.398;7.614;2023-05-02T01:44:34;6.22;;;5.20;;
50569;SDS011;36525;49.398;7.614;2023-05-02T01:47:03;9.13;;;7.03;;
50569;SDS011;36525;49.398;7.614;2023-05-02T01:49:33;8.48;;;6.78;;
50569;SDS011;36525;49.398;7.614;2023-05-02T01:52:02;9.27;;;8.38;;
50569;SDS011;36525;49.398;7.614;2023-05-02T01:54:34;8.52;;;7.60;;
50569;SDS011;36525;49.398;7.614;2023-05-02T01:57:04;7.30;;;6.43;;
50569;SDS011;36525;49.398;7.614;2023-05-02T01:59:32;12.30;;;11.02;;
50569;SDS011;36525;49.398;7.614;2023-05-02T02:02:01;21.77;;;19.17;;
50569;SDS011;36525;49.398;7.614;2023-05-02T02:04:31;19.27;;;16.58;;
50569;SDS011;36525;49.398;7.614;2023-05-02T02:07:05;14.60;;;10.52;;
50569;SDS011;36525;49.398;7.614;2023-05-02T02:09:34;7.97;;;7.15;;
50569;SDS011;36525;49.398;7.614;2023-05-02T02:12:04;16.65;;;13.82;;
50569;SDS011;36525;49.398;7.614;2023-05-02T02:14:41;12.18;;;10.88;;
50569;SDS011;36525;49.398;7.614;2023-05-02T02:17:14;14.40;;;12.90;;
50569;SDS011;36525;49.398;7.614;2023-05-02T02:19:49;11.82;;;10.68;;
50569;SDS011;36525;49.398;7.614;2023-05-02T02:22:22;23.05;;;19.95;;
50569;SDS011;36525;49.398;7.614;2023-05-02T02:24:52;12.40;;;10.52;;
50569;SDS011;36525;49.398;7.614;2023-05-02T02:27:20;14.95;;;13.35;;
50569;SDS011;36525;49.398;7.614;2023-05-02T02:29:47;12.50;;;11.20;;
50569;SDS011;36525;49.398;7.614;2023-05-02T02:32:15;13.68;;;10.30;;
50569;SDS011;36525;49.398;7.614;2023-05-02T02:34:42;19.05;;;12.70;;
50569;SDS011;36525;49.398;7.614;2023-05-02T02:37:13;11.68;;;9.40;;
50569;SDS011;36525;49.398;7.614;2023-05-02T02:39:56;11.85;;;10.40;;
50569;SDS011;36525;49.398;7.614;2023-05-02T02:42:49;14.35;;;11.48;;
50569;SDS011;36525;49.398;7.614;2023-05-02T02:48:36;11.50;;;9.18;;
50569;SDS011;36525;49.398;7.614;2023-05-02T02:54:21;19.25;;;17.23;;
50569;SDS011;36525;49.398;7.614;2023-05-02T02:57:14;11.98;;;10.77;;
50569;SDS011;36525;49.398;7.614;2023-05-02T03:02:45;13.10;;;11.40;;
50569;SDS011;36525;49.398;7.614;2023-05-02T03:05:14;14.13;;;9.90;;
50569;SDS011;36525;49.398;7.614;2023-05-02T03:07:42;12.88;;;11.57;;
50569;SDS011;36525;49.398;7.614;2023-05-02T03:10:10;11.63;;;10.43;;
50569;SDS011;36525;49.398;7.614;2023-05-02T03:12:37;16.70;;;14.90;;
50569;SDS011;36525;49.398;7.614;2023-05-02T03:17:44;15.70;;;14.02;;
50569;SDS011;36525;49.398;7.614;2023-05-02T03:20:12;14.27;;;12.70;;
50569;SDS011;36525;49.398;7.614;2023-05-02T03:22:39;15.57;;;13.90;;
50569;SDS011;36525;49.398;7.614;2023-05-02T03:25:07;12.43;;;10.98;;
50569;SDS011;36525;49.398;7.614;2023-05-02T03:27:34;15.50;;;12.82;;
50569;SDS011;36525;49.398;7.614;2023-05-02T03:30:02;18.02;;;15.27;;
50569;SDS011;36525;49.398;7.614;2023-05-02T03:32:29;13.23;;;11.65;;
50569;SDS011;36525;49.398;7.614;2023-05-02T03:34:57;16.42;;;13.95;;
50569;SDS011;36525;49.398;7.614;2023-05-02T03:37:25;17.85;;;16.05;;
50569;SDS011;36525;49.398;7.614;2023-05-02T03:39:52;15.23;;;12.32;;
50569;SDS011;36525;49.398;7.614;2023-05-02T03:42:19;13.35;;;11.05;;
50569;SDS011;36525;49.398;7.614;2023-05-02T03:44:47;12.80;;;11.18;;
50569;SDS011;36525;49.398;7.614;2023-05-02T03:47:19;15.15;;;10.90;;
50569;SDS011;36525;49.398;7.614;2023-05-02T03:49:47;11.63;;;10.00;;
50569;SDS011;36525;49.398;7.614;2023-05-02T03:52:14;12.45;;;10.68;;
50569;SDS011;36525;49.398;7.614;2023-05-02T03:54:41;16.23;;;14.38;;
50569;SDS011;36525;49.398;7.614;2023-05-02T03:57:09;11.80;;;10.52;;
50569;SDS011;36525;49.398;7.614;2023-05-02T03:59:37;12.38;;;10.52;;
50569;SDS011;36525;49.398;7.614;2023-05-02T04:02:07;12.98;;;11.13;;
50569;SDS011;36525;49.398;7.614;2023-05-02T04:04:34;15.05;;;13.45;;
50569;SDS011;36525;49.398;7.614;2023-05-02T04:07:02;15.65;;;13.23;;
50569;SDS011;36525;49.398;7.614;2023-05-02T04:09:30;12.00;;;10.77;;
50569;SDS011;36525;49.398;7.614;2023-05-02T04:11:57;14.18;;;10.98;;
50569;SDS011;36525;49.398;7.614;2023-05-02T04:14:24;15.10;;;13.48;;
50569;SDS011;36525;49.398;7.614;2023-05-02T04:16:51;13.27;;;11.88;;
50569;SDS011;36525;49.398;7.614;2023-05-02T04:19:19;12.52;;;11.23;;
50569;SDS011;36525;49.398;7.614;2023-05-02T04:21:46;14.55;;;12.07;;
50569;SDS011;36525;49.398;7.614;2023-05-02T04:24:13;18.23;;;14.88;;
50569;SDS011;36525;49.398;7.614;2023-05-02T04:26:40;16.30;;;13.65;;
50569;SDS011;36525;49.398;7.614;2023-05-02T04:29:08;20.63;;;17.50;;
50569;SDS011;36525;49.398;7.614;2023-05-02T04:31:35;24.52;;;20.42;;
50569;SDS011;36525;49.398;7.614;2023-05-02T04:34:04;18.83;;;16.83;;
50569;SDS011;36525;49.398;7.614;2023-05-02T04:36:33;22.02;;;18.27;;
50569;SDS011;36525;49.398;7.614;2023-05-02T04:39:00;24.00;;;17.00;;
50569;SDS011;36525;49.398;7.614;2023-05-02T04:41:29;19.00;;;15.85;;
50569;SDS011;36525;49.398;7.614;2023-05-02T04:43:56;16.73;;;14.00;;
50569;SDS011;36525;49.398;7.614;2023-05-02T04:46:23;12.20;;;10.30;;
50569;SDS011;36525;49.398;7.614;2023-05-02T04:48:50;15.10;;;11.95;;
50569;SDS011;36525;49.398;7.614;2023-05-02T04:51:17;18.30;;;13.85;;
50569;SDS011;36525;49.398;7.614;2023-05-02T04:53:45;16.70;;;14.43;;
50569;SDS011;36525;49.398;7.614;2023-05-02T04:56:12;15.40;;;13.13;;
50569;SDS011;36525;49.398;7.614;2023-05-02T04:58:40;22.13;;;18.05;;
50569;SDS011;36525;49.398;7.614;2023-05-02T05:01:07;23.00;;;18.73;;
50569;SDS011;36525;49.398;7.614;2023-05-02T05:03:34;19.02;;;16.67;;
50569;SDS011;36525;49.398;7.614;2023-05-02T05:06:02;50.53;;;40.17;;
50569;SDS011;36525;49.398;7.614;2023-05-02T05:08:30;45.17;;;36.80;;
50569;SDS011;36525;49.398;7.614;2023-05-02T05:10:58;53.22;;;41.63;;
50569;SDS011;36525;49.398;7.614;2023-05-02T05:13:25;24.10;;;20.27;;
50569;SDS011;36525;49.398;7.614;2023-05-02T05:15:52;40.63;;;32.33;;
50569;SDS011;36525;49.398;7.614;2023-05-02T05:18:19;34.67;;;30.08;;
50569;SDS011;36525;49.398;7.614;2023-05-02T05:20:47;37.08;;;30.23;;
50569;SDS011;36525;49.398;7.614;2023-05-02T05:23:14;34.72;;;29.90;;
50569;SDS011;36525;49.398;7.614;2023-05-02T05:25:41;37.53;;;30.42;;
50569;SDS011;36525;49.398;7.614;2023-05-02T05:28:11;27.70;;;22.98;;
50569;SDS011;36525;49.398;7.614;2023-05-02T05:30:38;21.45;;;18.13;;
50569;SDS011;36525;49.398;7.614;2023-05-02T05:33:07;23.80;;;20.63;;
50569;SDS011;36525;49.398;7.614;2023-05-02T05:35:34;24.02;;;17.85;;
50569;SDS011;36525;49.398;7.614;2023-05-02T05:38:01;18.52;;;16.52;;
50569;SDS011;36525;49.398;7.614;2023-05-02T05:40:28;22.13;;;19.27;;
50569;SDS011;36525;49.398;7.614;2023-05-02T05:42:56;18.25;;;15.70;;
50569;SDS011;36525;49.398;7.614;2023-05-02T05:45:23;22.58;;;17.63;;
50569;SDS011;36525;49.398;7.614;2023-05-02T05:47:50;22.58;;;17.52;;
50569;SDS011;36525;49.398;7.614;2023-05-02T05:50:21;18.27;;;16.05;;
50569;SDS011;36525;49.398;7.614;2023-05-02T05:52:48;17.48;;;14.10;;
50569;SDS011;36525;49.398;7.614;2023-05-02T05:55:15;14.55;;;11.63;;
50569;SDS011;36525;49.398;7.614;2023-05-02T05:57:43;16.70;;;13.45;;
50569;SDS011;36525;49.398;7.614;2023-05-02T06:00:10;16.90;;;12.90;;
50569;SDS011;36525;49.398;7.614;2023-05-02T06:02:38;16.70;;;13.27;;
50569;SDS011;36525;49.398;7.614;2023-05-02T06:05:06;17.73;;;15.65;;
50569;SDS011;36525;49.398;7.614;2023-05-02T06:07:33;16.55;;;14.43;;
50569;SDS011;36525;49.398;7.614;2023-05-02T06:10:00;18.95;;;16.17;;
50569;SDS011;36525;49.398;7.614;2023-05-02T06:12:28;49.85;;;36.95;;
50569;SDS011;36525;49.398;7.614;2023-05-02T06:14:56;50.95;;;39.08;;
50569;SDS011;36525;49.398;7.614;2023-05-02T06:17:24;52.17;;;41.17;;
50569;SDS011;36525;49.398;7.614;2023-05-02T06:19:54;49.88;;;40.75;;
50569;SDS011;36525;49.398;7.614;2023-05-02T06:22:21;56.47;;;43.72;;
50569;SDS011;36525;49.398;7.614;2023-05-02T06:24:48;53.88;;;44.28;;
50569;SDS011;36525;49.398;7.614;2023-05-02T06:27:16;57.17;;;46.15;;
50569;SDS011;36525;49.398;7.614;2023-05-02T06:29:43;57.05;;;46.38;;
50569;SDS011;36525;49.398;7.614;2023-05-02T06:32:11;55.78;;;45.05;;
50569;SDS011;36525;49.398;7.614;2023-05-02T06:34:38;53.15;;;41.83;;
50569;SDS011;36525;49.398;7.614;2023-05-02T06:37:05;51.67;;;43.53;;
50569;SDS011;36525;49.398;7.614;2023-05-02T06:39:32;47.67;;;40.50;;
50569;SDS011;36525;49.398;7.614;2023-05-02T06:41:59;53.33;;;44.00;;
50569;SDS011;36525;49.398;7.614;2023-05-02T06:44:26;52.58;;;42.85;;
50569;SDS011;36525;49.398;7.614;2023-05-02T06:46:53;49.20;;;42.05;;
50569;SDS011;36525;49.398;7.614;2023-05-02T06:49:21;50.28;;;40.53;;
50569;SDS011;36525;49.398;7.614;2023-05-02T06:51:50;51.65;;;40.42;;
50569;SDS011;36525;49.398;7.614;2023-05-02T06:54:17;53.60;;;41.22;;
50569;SDS011;36525;49.398;7.614;2023-05-02T06:56:45;46.92;;;38.65;;
50569;SDS011;36525;49.398;7.614;2023-05-02T06:59:12;52.08;;;40.90;;
50569;SDS011;36525;49.398;7.614;2023-05-02T07:01:42;47.15;;;40.55;;
50569;SDS011;36525;49.398;7.614;2023-05-02T07:04:10;43.28;;;37.38;;
50569;SDS011;36525;49.398;7.614;2023-05-02T07:06:38;47.90;;;39.53;;
50569;SDS011;36525;49.398;7.614;2023-05-02T07:09:06;47.15;;;39.25;;
50569;SDS011;36525;49.398;7.614;2023-05-02T07:11:33;43.03;;;36.15;;
50569;SDS011;36525;49.398;7.614;2023-05-02T07:14:01;47.47;;;38.45;;
50569;SDS011;36525;49.398;7.614;2023-05-02T07:16:28;47.90;;;37.50;;
50569;SDS011;36525;49.398;7.614;2023-05-02T07:18:58;43.78;;;36.80;;
50569;SDS011;36525;49.398;7.614;2023-05-02T07:21:25;37.03;;;29.75;;
50569;SDS011;36525;49.398;7.614;2023-05-02T07:23:53;39.72;;;30.67;;
50569;SDS011;36525;49.398;7.614;2023-05-02T07:26:23;40.40;;;33.63;;
50569;SDS011;36525;49.398;7.614;2023-05-02T07:28:51;40.20;;;32.47;;
50569;SDS011;36525;49.398;7.614;2023-05-02T07:31:19;36.95;;;31.30;;
50569;SDS011;36525;49.398;7.614;2023-05-02T07:33:46;39.80;;;31.98;;
50569;SDS011;36525;49.398;7.614;2023-05-02T07:36:13;37.33;;;32.05;;
50569;SDS011;36525;49.398;7.614;2023-05-02T07:38:41;42.88;;;33.83;;
50569;SDS011;36525;49.398;7.614;2023-05-02T07:41:08;40.05;;;34.35;;
50569;SDS011;36525;49.398;7.614;2023-05-02T07:43:35;44.13;;;35.10;;
50569;SDS011;36525;49.398;7.614;2023-05-02T07:46:03;37.33;;;31.60;;
50569;SDS011;36525;49.398;7.614;2023-05-02T07:48:31;38.72;;;33.63;;
50569;SDS011;36525;49.398;7.614;2023-05-02T07:51:08;40.85;;;32.42;;
50569;SDS011;36525;49.398;7.614;2023-05-02T07:53:36;40.78;;;32.53;;
50569;SDS011;36525;49.398;7.614;2023-05-02T07:56:04;37.53;;;29.90;;
50569;SDS011;36525;49.398;7.614;2023-05-02T07:58:33;34.90;;;29.42;;
50569;SDS011;36525;49.398;7.614;2023-05-02T08:01:02;37.53;;;29.50;;
50569;SDS011;36525;49.398;7.614;2023-05-02T08:03:29;35.63;;;28.45;;
50569;SDS011;36525;49.398;7.614;2023-05-02T08:05:57;35.58;;;29.90;;
50569;SDS011;36525;49.398;7.614;2023-05-02T08:08:24;36.13;;;29.58;;
50569;SDS011;36525;49.398;7.614;2023-05-02T08:10:51;31.40;;;27.70;;
50569;SDS011;36525;49.398;7.614;2023-05-02T08:13:20;35.22;;;29.58;;
50569;SDS011;36525;49.398;7.614;2023-05-02T08:15:47;34.58;;;27.08;;
50569;SDS011;36525;49.398;7.614;2023-05-02T08:18:14;29.90;;;25.27;;
50569;SDS011;36525;49.398;7.614;2023-05-02T08:20:42;32.25;;;26.40;;
50569;SDS011;36525;49.398;7.614;2023-05-02T08:23:09;31.40;;;26.20;;
50569;SDS011;36525;49.398;7.614;2023-05-02T08:25:36;32.25;;;26.70;;
50569;SDS011;36525;49.398;7.614;2023-05-02T08:28:03;33.10;;;25.77;;
50569;SDS011;36525;49.398;7.614;2023-05-02T08:30:30;32.53;;;25.45;;
50569;SDS011;36525;49.398;7.614;2023-05-02T08:32:57;28.92;;;24.13;;
50569;SDS011;36525;49.398;7.614;2023-05-02T08:35:24;32.45;;;26.67;;
50569;SDS011;36525;49.398;7.614;2023-05-02T08:37:54;32.35;;;26.08;;
50569;SDS011;36525;49.398;7.614;2023-05-02T08:40:22;31.88;;;24.58;;
50569;SDS011;36525;49.398;7.614;2023-05-02T08:43:06;29.08;;;23.98;;
50569;SDS011;36525;49.398;7.614;2023-05-02T08:45:34;30.35;;;23.50;;
50569;SDS011;36525;49.398;7.614;2023-05-02T08:48:05;31.95;;;24.85;;
50569;SDS011;36525;49.398;7.614;2023-05-02T08:50:43;29.02;;;22.63;;
50569;SDS011;36525;49.398;7.614;2023-05-02T08:53:13;25.13;;;20.90;;
50569;SDS011;36525;49.398;7.614;2023-05-02T08:55:42;28.27;;;22.25;;
50569;SDS011;36525;49.398;7.614;2023-05-02T08:58:09;28.25;;;21.80;;
50569;SDS011;36525;49.398;7.614;2023-05-02T09:00:41;29.40;;;20.47;;
50569;SDS011;36525;49.398;7.614;2023-05-02T09:08:47;24.90;;;19.38;;
50569;SDS011;36525;49.398;7.614;2023-05-02T09:11:15;22.25;;;18.20;;
50569;SDS011;36525;49.398;7.614;2023-05-02T09:13:44;25.27;;;19.63;;
50569;SDS011;36525;49.398;7.614;2023-05-02T09:16:17;25.58;;;19.77;;
50569;SDS011;36525;49.398;7.614;2023-05-02T09:18:55;25.55;;;19.30;;
50569;SDS011;36525;49.398;7.614;2023-05-02T09:21:24;26.42;;;19.60;;
50569;SDS011;36525;49.398;7.614;2023-05-02T09:24:15;25.92;;;20.92;;
50569;SDS011;36525;49.398;7.614;2023-05-02T09:27:00;26.33;;;19.87;;
50569;SDS011;36525;49.398;7.614;2023-05-02T09:29:31;27.23;;;20.27;;
50569;SDS011;36525;49.398;7.614;2023-05-02T09:32:03;26.58;;;20.52;;
50569;SDS011;36525;49.398;7.614;2023-05-02T09:34:32;26.13;;;19.30;;
50569;SDS011;36525;49.398;7.614;2023-05-02T09:37:00;27.10;;;18.73;;
50569;SDS011;36525;49.398;7.614;2023-05-02T09:39:29;24.15;;;19.00;;
50569;SDS011;36525;49.398;7.614;2023-05-02T09:41:57;22.83;;;18.55;;
50569;SDS011;36525;49.398;7.614;2023-05-02T09:44:25;26.65;;;19.00;;
50569;SDS011;36525;49.398;7.614;2023-05-02T09:47:02;26.55;;;20.38;;
50569;SDS011;36525;49.398;7.614;2023-05-02T09:49:39;27.63;;;20.08;;
50569;SDS011;36525;49.398;7.614;2023-05-02T09:52:12;25.65;;;19.33;;
50569;SDS011;36525;49.398;7.614;2023-05-02T09:54:42;25.08;;;19.05;;
50569;SDS011;36525;49.398;7.614;2023-05-02T09:57:12;26.30;;;20.95;;
50569;SDS011;36525;49.398;7.614;2023-05-02T09:59:39;27.20;;;20.02;;
50569;SDS011;36525;49.398;7.614;2023-05-02T10:02:07;30.48;;;20.83;;
50569;SDS011;36525;49.398;7.614;2023-05-02T10:04:37;26.98;;;20.25;;
50569;SDS011;36525;49.398;7.614;2023-05-02T10:07:06;25.90;;;19.80;;
50569;SDS011;36525;49.398;7.614;2023-05-02T10:09:36;28.08;;;19.45;;
50569;SDS011;36525;49.398;7.614;2023-05-02T10:12:09;25.75;;;19.50;;
50569;SDS011;36525;49.398;7.614;2023-05-02T10:14:42;25.50;;;19.43;;
50569;SDS011;36525;49.398;7.614;2023-05-02T10:17:19;24.48;;;19.15;;
50569;SDS011;36525;49.398;7.614;2023-05-02T10:19:58;22.02;;;18.02;;
50569;SDS011;36525;49.398;7.614;2023-05-02T10:22:29;25.83;;;18.20;;
50569;SDS011;36525;49.398;7.614;2023-05-02T10:24:59;25.40;;;19.63;;
50569;SDS011;36525;49.398;7.614;2023-05-02T10:27:29;23.40;;;18.67;;
50569;SDS011;36525;49.398;7.614;2023-05-02T10:29:57;21.77;;;17.45;;
50569;SDS011;36525;49.398;7.614;2023-05-02T10:32:26;23.92;;;18.60;;
50569;SDS011;36525;49.398;7.614;2023-05-02T10:35:01;22.02;;;17.02;;
50569;SDS011;36525;49.398;7.614;2023-05-02T10:37:31;20.80;;;15.13;;
50569;SDS011;36525;49.398;7.614;2023-05-02T10:40:01;27.58;;;18.30;;
50569;SDS011;36525;49.398;7.614;2023-05-02T10:42:31;20.77;;;15.25;;
50569;SDS011;36525;49.398;7.614;2023-05-02T10:45:09;17.90;;;14.23;;
50569;SDS011;36525;49.398;7.614;2023-05-02T10:47:38;14.57;;;11.68;;
50569;SDS011;36525;49.398;7.614;2023-05-02T10:50:06;15.68;;;12.15;;
50569;SDS011;36525;49.398;7.614;2023-05-02T10:52:34;14.10;;;9.95;;
50569;SDS011;36525;49.398;7.614;2023-05-02T10:55:17;15.95;;;11.35;;
50569;SDS011;36525;49.398;7.614;2023-05-02T11:00:25;17.55;;;13.02;;
50569;SDS011;36525;49.398;7.614;2023-05-02T11:02:55;21.20;;;13.68;;
50569;SDS011;36525;49.398;7.614;2023-05-02T11:05:25;20.15;;;14.68;;
50569;SDS011;36525;49.398;7.614;2023-05-02T11:10:45;20.47;;;14.90;;
50569;SDS011;36525;49.398;7.614;2023-05-02T11:13:13;19.05;;;13.98;;
50569;SDS011;36525;49.398;7.614;2023-05-02T11:18:10;19.17;;;13.90;;
50569;SDS011;36525;49.398;7.614;2023-05-02T11:31:05;14.85;;;11.50;;
50569;SDS011;36525;49.398;7.614;2023-05-02T11:33:56;15.95;;;11.20;;
50569;SDS011;36525;49.398;7.614;2023-05-02T11:36:27;15.93;;;11.30;;
50569;SDS011;36525;49.398;7.614;2023-05-02T11:38:56;16.02;;;10.70;;
50569;SDS011;36525;49.398;7.614;2023-05-02T11:41:36;14.02;;;10.43;;
50569;SDS011;36525;49.398;7.614;2023-05-02T11:44:05;12.98;;;9.38;;
50569;SDS011;36525;49.398;7.614;2023-05-02T11:46:32;14.38;;;9.95;;
50569;SDS011;36525;49.398;7.614;2023-05-02T11:49:03;15.98;;;12.30;;
50569;SDS011;36525;49.398;7.614;2023-05-02T11:51:36;14.23;;;10.55;;
50569;SDS011;36525;49.398;7.614;2023-05-02T11:54:03;12.80;;;9.85;;
50569;SDS011;36525;49.398;7.614;2023-05-02T11:56:33;20.17;;;11.38;;
50569;SDS011;36525;49.398;7.614;2023-05-02T11:59:01;15.52;;;11.60;;
50569;SDS011;36525;49.398;7.614;2023-05-02T12:01:29;15.10;;;10.52;;
50569;SDS011;36525;49.398;7.614;2023-05-02T12:06:34;13.15;;;9.85;;
50569;SDS011;36525;49.398;7.614;2023-05-02T12:09:05;12.20;;;9.30;;
50569;SDS011;36525;49.398;7.614;2023-05-02T12:11:39;12.93;;;8.50;;
50569;SDS011;36525;49.398;7.614;2023-05-02T12:14:06;10.55;;;8.18;;
50569;SDS011;36525;49.398;7.614;2023-05-02T12:16:34;12.05;;;8.50;;
50569;SDS011;36525;49.398;7.614;2023-05-02T12:19:02;10.75;;;7.28;;
50569;SDS011;36525;49.398;7.614;2023-05-02T12:21:30;9.30;;;6.95;;
50569;SDS011;36525;49.398;7.614;2023-05-02T12:24:00;9.75;;;6.25;;
50569;SDS011;36525;49.398;7.614;2023-05-02T12:26:28;7.22;;;5.25;;
50569;SDS011;36525;49.398;7.614;2023-05-02T12:28:58;6.90;;;4.90;;
50569;SDS011;36525;49.398;7.614;2023-05-02T12:31:27;8.45;;;5.22;;
50569;SDS011;36525;49.398;7.614;2023-05-02T12:33:56;6.63;;;4.30;;
50569;SDS011;36525;49.398;7.614;2023-05-02T12:36:26;6.63;;;4.53;;
50569;SDS011;36525;49.398;7.614;2023-05-02T12:38:57;7.38;;;4.28;;
50569;SDS011;36525;49.398;7.614;2023-05-02T12:41:32;6.53;;;3.85;;
50569;SDS011;36525;49.398;7.614;2023-05-02T12:44:01;5.07;;;3.33;;
50569;SDS011;36525;49.398;7.614;2023-05-02T12:46:29;6.93;;;4.60;;
50569;SDS011;36525;49.398;7.614;2023-05-02T12:49:07;8.85;;;4.93;;
50569;SDS011;36525;49.398;7.614;2023-05-02T12:51:37;6.97;;;4.53;;
50569;SDS011;36525;49.398;7.614;2023-05-02T12:54:06;9.02;;;5.80;;
50569;SDS011;36525;49.398;7.614;2023-05-02T12:56:39;9.38;;;5.60;;
50569;SDS011;36525;49.398;7.614;2023-05-02T12:59:09;7.80;;;3.85;;
50569;SDS011;36525;49.398;7.614;2023-05-02T13:01:54;6.68;;;3.83;;
50569;SDS011;36525;49.398;7.614;2023-05-02T13:07:06;5.75;;;3.38;;
50569;SDS011;36525;49.398;7.614;2023-05-02T13:09:33;5.57;;;3.55;;
50569;SDS011;36525;49.398;7.614;2023-05-02T13:12:00;5.88;;;3.38;;
50569;SDS011;36525;49.398;7.614;2023-05-02T13:14:29;7.85;;;3.83;;
50569;SDS011;36525;49.398;7.614;2023-05-02T13:16:56;5.78;;;3.75;;
50569;SDS011;36525;49.398;7.614;2023-05-02T13:19:24;7.05;;;4.45;;
50569;SDS011;36525;49.398;7.614;2023-05-02T13:21:54;6.13;;;4.07;;
50569;SDS011;36525;49.398;7.614;2023-05-02T13:24:21;7.82;;;4.70;;
50569;SDS011;36525;49.398;7.614;2023-05-02T13:26:48;6.47;;;3.92;;
50569;SDS011;36525;49.398;7.614;2023-05-02T13:29:16;6.85;;;3.65;;
50569;SDS011;36525;49.398;7.614;2023-05-02T13:31:43;7.90;;;3.97;;
50569;SDS011;36525;49.398;7.614;2023-05-02T13:34:10;5.35;;;3.13;;
50569;SDS011;36525;49.398;7.614;2023-05-02T13:36:37;7.40;;;4.00;;
50569;SDS011;36525;49.398;7.614;2023-05-02T13:39:11;6.95;;;4.38;;
50569;SDS011;36525;49.398;7.614;2023-05-02T13:41:39;7.05;;;3.97;;
50569;SDS011;36525;49.398;7.614;2023-05-02T13:44:06;7.90;;;4.32;;
50569;SDS011;36525;49.398;7.614;2023-05-02T13:46:34;6.75;;;4.47;;
50569;SDS011;36525;49.398;7.614;2023-05-02T13:49:03;6.75;;;4.68;;
50569;SDS011;36525;49.398;7.614;2023-05-02T13:51:30;7.65;;;4.28;;
50569;SDS011;36525;49.398;7.614;2023-05-02T13:53:58;6.47;;;4.65;;
50569;SDS011;36525;49.398;7.614;2023-05-02T13:56:26;6.32;;;3.78;;
50569;SDS011;36525;49.398;7.614;2023-05-02T13:58:54;8.73;;;3.65;;
50569;SDS011;36525;49.398;7.614;2023-05-02T14:01:22;6.95;;;4.88;;
50569;SDS011;36525;49.398;7.614;2023-05-02T14:03:52;5.70;;;4.30;;
50569;SDS011;36525;49.398;7.614;2023-05-02T14:06:20;7.18;;;4.53;;
50569;SDS011;36525;49.398;7.614;2023-05-02T14:08:47;6.57;;;4.32;;
50569;SDS011;36525;49.398;7.614;2023-05-02T14:11:14;4.95;;;3.58;;
50569;SDS011;36525;49.398;7.614;2023-05-02T14:13:41;5.72;;;3.90;;
50569;SDS011;36525;49.398;7.614;2023-05-02T14:16:09;7.78;;;3.83;;
50569;SDS011;36525;49.398;7.614;2023-05-02T14:18:36;6.63;;;3.20;;
50569;SDS011;36525;49.398;7.614;2023-05-02T14:21:04;6.80;;;4.20;;
50569;SDS011;36525;49.398;7.614;2023-05-02T14:23:32;6.80;;;3.88;;
50569;SDS011;36525;49.398;7.614;2023-05-02T14:26:00;5.22;;;3.33;;
50569;SDS011;36525;49.398;7.614;2023-05-02T14:28:27;6.30;;;4.05;;
50569;SDS011;36525;49.398;7.614;2023-05-02T14:30:55;5.93;;;3.85;;
50569;SDS011;36525;49.398;7.614;2023-05-02T14:33:22;5.78;;;3.42;;
50569;SDS011;36525;49.398;7.614;2023-05-02T14:35:49;4.97;;;3.47;;
50569;SDS011;36525;49.398;7.614;2023-05-02T14:38:16;5.55;;;3.05;;
50569;SDS011;36525;49.398;7.614;2023-05-02T14:40:44;5.00;;;3.45;;
50569;SDS011;36525;49.398;7.614;2023-05-02T14:43:12;4.63;;;2.50;;
50569;SDS011;36525;49.398;7.614;2023-05-02T14:45:39;4.53;;;3.35;;
50569;SDS011;36525;49.398;7.614;2023-05-02T14:48:06;3.97;;;2.60;;
50569;SDS011;36525;49.398;7.614;2023-05-02T14:50:35;3.95;;;2.67;;
50569;SDS011;36525;49.398;7.614;2023-05-02T14:53:03;4.95;;;3.10;;
50569;SDS011;36525;49.398;7.614;2023-05-02T14:55:34;4.22;;;2.60;;
50569;SDS011;36525;49.398;7.614;2023-05-02T14:58:05;6.07;;;3.35;;
50569;SDS011;36525;49.398;7.614;2023-05-02T15:00:37;5.13;;;2.85;;
50569;SDS011;36525;49.398;7.614;2023-05-02T15:03:04;4.55;;;2.90;;
50569;SDS011;36525;49.398;7.614;2023-05-02T15:05:33;4.65;;;2.80;;
50569;SDS011;36525;49.398;7.614;2023-05-02T15:08:02;13.70;;;3.90;;
50569;SDS011;36525;49.398;7.614;2023-05-02T15:10:30;5.35;;;3.08;;
50569;SDS011;36525;49.398;7.614;2023-05-02T15:12:59;6.53;;;3.83;;
50569;SDS011;36525;49.398;7.614;2023-05-02T15:15:27;4.55;;;2.88;;
50569;SDS011;36525;49.398;7.614;2023-05-02T15:17:54;4.15;;;2.70;;
50569;SDS011;36525;49.398;7.614;2023-05-02T15:20:21;5.90;;;2.97;;
50569;SDS011;36525;49.398;7.614;2023-05-02T15:22:48;4.38;;;3.15;;
50569;SDS011;36525;49.398;7.614;2023-05-02T15:25:15;5.50;;;3.28;;
50569;SDS011;36525;49.398;7.614;2023-05-02T15:27:42;5.90;;;3.15;;
50569;SDS011;36525;49.398;7.614;2023-05-02T15:30:10;6.22;;;3.63;;